Praetorius — 5BRS2 — position and weather

sailwx.info

Track history (hours):
 
Tides and Currents Weather Stations Pressure Air Temp Water Temp Dewpoint Dewpoint Depression Visibility Wind Speed Wind Dir Waves Ship Positions

Praetorius

Last reported at 2018-Feb-22 06:28 UTC. Time now 2018-Feb-23 14:47 UTC.
Position N 46°18' E 030°55'.

Length 169 m; draft 10 m.

Type: Ship. MMSI: 212942000.

Date/timePositionNaut miles runAvg speedWind from/ knotsBaromVisibWave heightAir tempDewpointWater temp
2018-Feb-22 06:28N 46°18' E 030°55'612.5
2018-Feb-22 06:00N 46°24' E 030°56'612.6
2018-Feb-22 05:30N 46°30' E 030°55'25 8.4
2018-Feb-22 02:30N 46°35' E 031°31'4 8.2
2018-Feb-22 01:58N 46°35' E 031°38'4 8.3
2018-Feb-22 01:30N 46°36' E 031°43'4 8.0
2018-Feb-22 01:00N 46°36' E 031°49'4 7.9
2018-Feb-22 00:29N 46°38' E 031°54'4 7.8
2018-Feb-22 00:00N 46°42' E 031°56'4 7.0
2018-Feb-21 23:30N 46°45' E 031°54'4 7.6
2018-Feb-21 23:00N 46°49' E 031°54'4 8.6
2018-Feb-21 22:30N 46°52' E 031°58'4 8.1
2018-Feb-21 22:00N 46°55' E 032°01'2 3.0
2018-Feb-21 21:30N 46°57' E 032°00'0 0.1
2018-Feb-21 21:00N 46°56' E 032°00'0 0.0
2018-Feb-21 20:30N 46°56' E 032°00'0 0.0
2018-Feb-21 20:00N 46°56' E 032°00'0 0.0
2018-Feb-21 19:30N 46°56' E 032°00'0 0.0
2018-Feb-21 19:00N 46°56' E 032°00'0 0.0
2018-Feb-21 18:30N 46°56' E 032°00'0 0.0
2018-Feb-21 18:00N 46°56' E 032°00'0 0.0
2018-Feb-21 17:30N 46°56' E 032°00'0 0.0
2018-Feb-21 17:00N 46°56' E 032°00'0 0.0
2018-Feb-21 16:30N 46°56' E 032°00'0 0.0
2018-Feb-21 16:00N 46°56' E 032°00'0 0.0
2018-Feb-21 15:30N 46°56' E 032°00'0 0.0
2018-Feb-21 14:57N 46°56' E 032°00'0 0.0
2018-Feb-21 14:30N 46°56' E 032°00'0 0.0
2018-Feb-21 13:57N 46°56' E 032°00'0 0.0
2018-Feb-21 13:30N 46°56' E 032°00'0 0.0
2018-Feb-21 13:00N 46°57' E 032°00'0 0.0
2018-Feb-21 12:30N 46°56' E 032°00'0 0.0
2018-Feb-21 12:00N 46°56' E 032°00'0 0.0
2018-Feb-21 11:30N 46°56' E 032°00'0 0.0
2018-Feb-21 11:00N 46°56' E 032°00'0 0.0
2018-Feb-21 10:30N 46°56' E 032°00'0 0.0
2018-Feb-21 10:00N 46°56' E 032°00'0 0.0
2018-Feb-21 09:30N 46°56' E 032°00'0 0.0
2018-Feb-21 09:00N 46°56' E 032°00'0 0.1
2018-Feb-21 08:30N 46°56' E 032°00'0 0.0
2018-Feb-21 08:00N 46°56' E 032°00'0 0.0
2018-Feb-21 07:30N 46°56' E 032°00'0 0.0
2018-Feb-21 07:00N 46°56' E 032°00'0 0.0
2018-Feb-21 06:30N 46°56' E 032°00'0 0.0
2018-Feb-21 06:00N 46°56' E 032°00'0 0.0
2018-Feb-21 05:30N 46°56' E 032°00'0 0.0
2018-Feb-21 05:00N 46°56' E 032°00'0 0.0
2018-Feb-21 04:30N 46°56' E 032°00'0 0.0
2018-Feb-21 04:00N 46°56' E 032°00'0 0.0
2018-Feb-21 03:30N 46°56' E 032°00'0 0.0
2018-Feb-21 03:00N 46°56' E 032°00'0 0.0
2018-Feb-21 02:30N 46°56' E 032°00'0 0.0
2018-Feb-21 02:00N 46°56' E 032°00'0 0.0
2018-Feb-21 01:30N 46°56' E 032°00'0 0.0
2018-Feb-21 01:00N 46°56' E 032°00'0 0.0
2018-Feb-21 00:30N 46°56' E 032°00'0 0.0
2018-Feb-21 00:00N 46°56' E 032°00'0 0.0
2018-Feb-20 23:30N 46°56' E 032°00'0 0.0
2018-Feb-20 23:00N 46°56' E 032°00'0 0.0
2018-Feb-20 22:30N 46°56' E 032°00'0 0.1
2018-Feb-20 21:57N 46°57' E 032°00'0 0.0
2018-Feb-20 21:30N 46°57' E 032°00'0 0.1
2018-Feb-20 20:57N 46°57' E 032°00'0 0.1
2018-Feb-20 20:30N 46°57' E 032°00'1 1.1
2018-Feb-20 20:00N 46°57' E 031°60'0 0.0
2018-Feb-20 19:30N 46°57' E 031°60'0 0.0
2018-Feb-20 19:00N 46°57' E 031°60'0 0.0
2018-Feb-20 18:30N 46°57' E 031°60'0 0.0
2018-Feb-20 18:00N 46°57' E 031°60'0 0.0
2018-Feb-20 17:30N 46°57' E 031°60'0 0.0
2018-Feb-20 17:00N 46°57' E 031°60'0 0.0
2018-Feb-20 16:30N 46°57' E 031°60'0 0.0
2018-Feb-20 16:00N 46°57' E 031°60'0 0.0
2018-Feb-20 15:30N 46°57' E 031°60'0 0.0
2018-Feb-20 15:00N 46°57' E 031°60'0 0.0
2018-Feb-20 14:30N 46°57' E 031°60'0 0.0
2018-Feb-20 13:57N 46°57' E 031°60'0 0.0
2018-Feb-20 13:27N 46°57' E 031°60'0 0.0
2018-Feb-20 12:57N 46°57' E 031°60'0 0.0
2018-Feb-20 12:27N 46°57' E 031°60'0 0.0
2018-Feb-20 11:45N 46°57' E 031°60'0 0.0
2018-Feb-20 11:27N 46°57' E 031°60'0 0.0
2018-Feb-20 10:57N 46°57' E 031°60'0 0.0
2018-Feb-20 10:27N 46°57' E 031°60'0 0.0
2018-Feb-20 09:57N 46°57' E 031°60'0 0.0
2018-Feb-20 09:27N 46°57' E 031°60'0 0.0
2018-Feb-20 08:57N 46°57' E 031°60'0 0.0
2018-Feb-20 08:27N 46°57' E 031°60'0 0.0
2018-Feb-20 08:00N 46°57' E 031°60'0 0.0
2018-Feb-20 07:30N 46°57' E 031°60'0 0.0
2018-Feb-20 07:00N 46°57' E 031°60'0 0.0
2018-Feb-20 06:30N 46°57' E 031°60'0 0.0
2018-Feb-20 06:00N 46°57' E 031°60'0 0.0
2018-Feb-20 05:30N 46°57' E 031°60'0 0.0
2018-Feb-20 05:00N 46°57' E 031°60'0 0.0
2018-Feb-20 04:30N 46°57' E 031°60'0 0.0
2018-Feb-20 03:57N 46°57' E 031°60'0 0.0
2018-Feb-20 03:30N 46°57' E 031°60'0 0.0
2018-Feb-20 03:00N 46°57' E 031°60'0 0.0
2018-Feb-20 02:30N 46°57' E 031°60'0 0.0
2018-Feb-20 02:00N 46°57' E 031°60'0 0.0
2018-Feb-20 01:30N 46°57' E 031°60'0 0.0
2018-Feb-20 01:00N 46°57' E 031°60'0 0.0
2018-Feb-20 00:30N 46°57' E 031°60'0 0.0
2018-Feb-20 00:00N 46°57' E 031°60'0 0.0
2018-Feb-19 23:30N 46°57' E 031°60'0 0.0
2018-Feb-19 23:00N 46°57' E 031°60'0 0.0
2018-Feb-19 22:30N 46°57' E 031°60'0 0.0
2018-Feb-19 22:00N 46°57' E 031°60'0 0.0
2018-Feb-19 21:24N 46°57' E 031°60'0 0.0
2018-Feb-19 21:00N 46°57' E 031°60'0 0.0
2018-Feb-19 20:30N 46°57' E 031°60'0 0.0
2018-Feb-19 20:00N 46°57' E 031°60'0 0.0
2018-Feb-19 19:30N 46°57' E 031°60'0 0.0
2018-Feb-19 19:00N 46°57' E 031°60'0 0.0
2018-Feb-19 18:30N 46°57' E 031°60'0 0.0
2018-Feb-19 18:00N 46°57' E 031°60'0 0.0
2018-Feb-19 17:30N 46°57' E 031°60'0 0.0
2018-Feb-19 17:00N 46°57' E 031°60'0 0.0
2018-Feb-19 16:30N 46°57' E 031°60'0 0.0
2018-Feb-19 16:00N 46°57' E 031°60'0 0.0
2018-Feb-19 15:30N 46°57' E 031°60'0 0.0
2018-Feb-19 15:00N 46°57' E 031°60'0 0.0
2018-Feb-19 14:30N 46°57' E 031°60'0 0.0
2018-Feb-19 14:00N 46°57' E 031°60'0 0.0
2018-Feb-19 13:30N 46°57' E 031°60'0 0.0
2018-Feb-19 13:00N 46°57' E 031°60'0 0.0
2018-Feb-19 12:30N 46°57' E 031°60'0 0.0
2018-Feb-19 12:00N 46°57' E 031°60'0 0.0
2018-Feb-19 11:30N 46°57' E 031°60'0 0.0
2018-Feb-19 11:00N 46°57' E 031°60'0 0.0
2018-Feb-19 10:30N 46°57' E 031°60'0 0.0
2018-Feb-19 09:54N 46°57' E 031°60'0 0.0
2018-Feb-19 09:30N 46°57' E 031°60'0 0.0
2018-Feb-19 09:00N 46°57' E 031°60'0 0.0
2018-Feb-19 08:24N 46°57' E 031°60'0 0.0
2018-Feb-19 08:00N 46°57' E 031°60'0 0.0
2018-Feb-19 07:30N 46°57' E 031°60'0 0.0
2018-Feb-19 07:00N 46°57' E 031°60'0 0.0
2018-Feb-19 06:30N 46°57' E 031°60'0 0.0
2018-Feb-19 06:00N 46°57' E 031°60'0 0.0
2018-Feb-19 05:30N 46°57' E 031°60'0 0.0
2018-Feb-19 05:00N 46°57' E 031°60'0 0.0
2018-Feb-19 04:30N 46°57' E 031°60'0 0.0
2018-Feb-19 04:00N 46°57' E 031°60'0 0.0
2018-Feb-19 03:27N 46°57' E 031°60'0 0.0
2018-Feb-19 03:00N 46°57' E 031°60'0 0.0
2018-Feb-19 02:30N 46°57' E 031°60'0 0.0
2018-Feb-19 02:00N 46°57' E 031°60'0 0.0
2018-Feb-19 01:27N 46°57' E 031°60'0 0.0
2018-Feb-19 01:00N 46°57' E 031°60'0 0.0
2018-Feb-19 00:30N 46°57' E 031°60'0 0.5
2018-Feb-19 00:00N 46°57' E 031°60'0 0.3
2018-Feb-18 23:30N 46°57' E 032°00'0 0.0
2018-Feb-18 23:00N 46°57' E 032°00'0 0.0
2018-Feb-18 22:30N 46°57' E 032°00'0 0.0
2018-Feb-18 22:00N 46°57' E 032°00'0 0.1
2018-Feb-18 21:30N 46°57' E 032°00'0 0.0
2018-Feb-18 21:00N 46°57' E 032°00'0 0.0
2018-Feb-18 20:30N 46°57' E 032°00'0 0.0
2018-Feb-18 20:00N 46°57' E 032°00'0 0.1
2018-Feb-18 19:30N 46°57' E 032°00'0 0.0
2018-Feb-18 19:00N 46°57' E 032°00'0 0.0
2018-Feb-18 18:30N 46°57' E 032°00'0 0.0
2018-Feb-18 18:00N 46°57' E 032°00'0 0.0
2018-Feb-18 17:30N 46°56' E 032°00'0 0.0
2018-Feb-18 17:00N 46°57' E 032°00'0 0.0
2018-Feb-18 16:30N 46°57' E 032°00'0 0.0
2018-Feb-18 16:00N 46°57' E 032°00'0 0.0
2018-Feb-18 15:30N 46°57' E 032°00'0 0.0
2018-Feb-18 15:00N 46°57' E 032°00'0 0.0
2018-Feb-18 14:30N 46°57' E 032°00'0 0.0
2018-Feb-18 14:00N 46°57' E 032°00'0 0.0
2018-Feb-18 13:30N 46°57' E 032°00'0 0.0
2018-Feb-18 13:00N 46°57' E 032°00'0 0.0
2018-Feb-18 12:30N 46°57' E 032°00'0 0.0
2018-Feb-18 12:00N 46°57' E 032°00'0 0.0
2018-Feb-18 11:30N 46°57' E 032°00'0 0.1
2018-Feb-18 11:00N 46°57' E 032°00'0 0.1
2018-Feb-18 10:27N 46°57' E 031°60'0 0.0
2018-Feb-18 10:00N 46°57' E 031°60'0 0.0
2018-Feb-18 09:30N 46°57' E 031°60'0 0.0
2018-Feb-18 09:00N 46°57' E 031°60'0 0.0
2018-Feb-18 08:30N 46°57' E 031°60'0 0.0
2018-Feb-18 08:00N 46°57' E 031°60'0 0.1
2018-Feb-18 07:30N 46°57' E 032°00'0 0.0
2018-Feb-18 07:00N 46°57' E 032°00'0 0.0
2018-Feb-18 06:30N 46°57' E 032°00'0 0.0
2018-Feb-18 06:00N 46°57' E 032°00'0 0.0
2018-Feb-18 05:30N 46°57' E 032°00'0 0.0
2018-Feb-18 05:00N 46°57' E 032°00'0 0.0
2018-Feb-18 04:30N 46°57' E 032°00'0 0.0
2018-Feb-18 04:00N 46°57' E 032°00'0 0.0
2018-Feb-18 03:30N 46°57' E 032°00'0 0.0
2018-Feb-18 03:00N 46°57' E 032°00'0 0.0
2018-Feb-18 02:30N 46°56' E 032°00'0 0.0
2018-Feb-18 02:00N 46°56' E 032°00'0 0.0
2018-Feb-18 01:30N 46°56' E 032°00'0 0.0
2018-Feb-18 01:00N 46°56' E 032°00'0 0.0
2018-Feb-18 00:30N 46°56' E 032°00'0 0.0
2018-Feb-18 00:00N 46°56' E 032°00'0 0.0
2018-Feb-17 23:30N 46°56' E 032°00'0 0.0
2018-Feb-17 23:00N 46°56' E 032°00'0 0.0
2018-Feb-17 22:31N 46°56' E 032°00'2 3.8
2018-Feb-17 22:00N 46°55' E 032°01'611.5
2018-Feb-17 21:30N 46°50' E 031°56'510.8
2018-Feb-17 21:00N 46°45' E 031°54'510.7
2018-Feb-17 20:31N 46°40' E 031°56'611.1
2018-Feb-17 19:59N 46°36' E 031°49'4 9.2
2018-Feb-17 19:31N 46°36' E 031°43'5 9.0
2018-Feb-17 19:00N 46°35' E 031°36'5 8.3
2018-Feb-17 18:26N 46°36' E 031°29'10 9.3
2018-Feb-17 17:21N 46°35' E 031°15'410.8
2018-Feb-17 16:58N 46°35' E 031°09'510.3
2018-Feb-17 16:31N 46°34' E 031°02'4 7.4
2018-Feb-17 16:00N 46°32' E 030°57'611.4
2018-Feb-17 15:31N 46°27' E 030°57'4 8.6
2018-Feb-17 15:01N 46°23' E 030°59'7 4.7
2018-Feb-17 13:36N 46°20' E 031°07'0 0.0
2018-Feb-17 05:53N 46°20' E 031°07'0 0.0
2018-Feb-17 04:58N 46°20' E 031°07'0 0.1
2018-Feb-17 03:53N 46°20' E 031°07'0 0.0
2018-Feb-17 02:55N 46°20' E 031°07'0 0.0
2018-Feb-17 02:13N 46°20' E 031°07'0 0.1
2018-Feb-17 01:57N 46°20' E 031°07'0 0.0
2018-Feb-17 01:30N 46°20' E 031°07'0 0.0
2018-Feb-17 00:52N 46°20' E 031°07'0 0.1
2018-Feb-17 00:31N 46°20' E 031°07'0 0.0
2018-Feb-16 23:59N 46°20' E 031°07'0 0.0
2018-Feb-16 23:29N 46°20' E 031°07'0 0.0
2018-Feb-16 22:55N 46°20' E 031°07'0 0.0
2018-Feb-16 22:28N 46°20' E 031°07'0 0.0
2018-Feb-16 21:58N 46°20' E 031°07'0 0.0
2018-Feb-16 21:27N 46°20' E 031°07'0 0.0
2018-Feb-16 20:59N 46°20' E 031°07'0 0.0
2018-Feb-16 20:26N 46°20' E 031°07'0 0.1
2018-Feb-16 20:01N 46°20' E 031°07'0 0.0
2018-Feb-16 19:30N 46°20' E 031°07'0 0.0
2018-Feb-16 16:28N 46°20' E 031°07'0 0.0
2018-Feb-16 16:00N 46°20' E 031°07'341 7.3
2018-Feb-14 17:09N 40°51' E 029°01'311.3
2018-Feb-14 16:51N 40°48' E 028°59'28411.6
2018-Feb-13 16:22N 37°44' E 024°21'1113.7
2018-Feb-13 15:32N 37°37' E 024°09'313.0
2018-Feb-13 15:20N 37°37' E 024°05'713.9
2018-Feb-13 14:48N 37°37' E 023°56'413.9
2018-Feb-13 14:30N 37°38' E 023°51'713.9
2018-Feb-13 14:01N 37°40' E 023°42'713.6
2018-Feb-13 13:30N 37°46' E 023°39'612.1
2018-Feb-13 13:01N 37°50' E 023°34'2 4.2
2018-Feb-13 12:29N 37°51' E 023°31'0 0.1
2018-Feb-13 11:59N 37°51' E 023°31'0 0.0
2018-Feb-13 11:29N 37°51' E 023°31'0 0.1
2018-Feb-13 10:59N 37°51' E 023°31'0 0.2
2018-Feb-13 10:29N 37°51' E 023°31'0 0.2
2018-Feb-13 09:59N 37°51' E 023°31'0 0.1
2018-Feb-13 09:29N 37°51' E 023°31'0 0.0
2018-Feb-13 08:59N 37°51' E 023°31'0 0.0
2018-Feb-13 08:29N 37°51' E 023°31'0 0.1
2018-Feb-13 07:59N 37°51' E 023°31'0 0.1
2018-Feb-13 07:29N 37°51' E 023°31'0 0.0
2018-Feb-13 06:59N 37°51' E 023°31'0 0.1
2018-Feb-13 06:29N 37°51' E 023°31'0 0.0
2018-Feb-13 05:59N 37°51' E 023°31'0 0.1
2018-Feb-13 05:29N 37°51' E 023°31'0 0.0
2018-Feb-13 04:59N 37°51' E 023°31'0 0.0
2018-Feb-13 04:29N 37°51' E 023°31'0 0.0
2018-Feb-13 03:53N 37°51' E 023°31'0 0.0
2018-Feb-13 03:29N 37°51' E 023°31'0 0.0
2018-Feb-13 02:59N 37°51' E 023°31'0 0.1
2018-Feb-13 02:30N 37°51' E 023°31'3 5.7
2018-Feb-13 02:00N 37°50' E 023°35'4 8.5
2018-Feb-13 01:30N 37°49' E 023°40'612.1
2018-Feb-13 01:00N 37°44' E 023°43'613.1
2018-Feb-13 00:31N 37°37' E 023°45'713.9
2018-Feb-13 00:01N 37°30' E 023°44'714.2
2018-Feb-12 23:30N 37°23' E 023°43'714.2
2018-Feb-12 23:00N 37°16' E 023°41'  
Track history (hours):
 
Tides and Currents Weather Stations Pressure Air Temp Water Temp Dewpoint Dewpoint Depression Visibility Wind Speed Wind Dir Waves Ship Positions

Praetorius

Last reported at 2018-Feb-22 06:28 UTC. Time now 2018-Feb-23 14:47 UTC.
Position N 46°18' E 030°55'.

Length 169 m; draft 10 m.

Type: Ship. MMSI: 212942000.

Date/timePositionNaut miles runAvg speedWind from/ knotsBaromVisibWave heightAir tempDewpointWater temp
2018-Feb-22 06:28N 46°18' E 030°55'612.5
2018-Feb-22 06:00N 46°24' E 030°56'612.6
2018-Feb-22 05:30N 46°30' E 030°55'25 8.4
2018-Feb-22 02:30N 46°35' E 031°31'4 8.2
2018-Feb-22 01:58N 46°35' E 031°38'4 8.3
2018-Feb-22 01:30N 46°36' E 031°43'4 8.0
2018-Feb-22 01:00N 46°36' E 031°49'4 7.9
2018-Feb-22 00:29N 46°38' E 031°54'4 7.8
2018-Feb-22 00:00N 46°42' E 031°56'4 7.0
2018-Feb-21 23:30N 46°45' E 031°54'4 7.6
2018-Feb-21 23:00N 46°49' E 031°54'4 8.6
2018-Feb-21 22:30N 46°52' E 031°58'4 8.1
2018-Feb-21 22:00N 46°55' E 032°01'2 3.0
2018-Feb-21 21:30N 46°57' E 032°00'0 0.1
2018-Feb-21 21:00N 46°56' E 032°00'0 0.0
2018-Feb-21 20:30N 46°56' E 032°00'0 0.0
2018-Feb-21 20:00N 46°56' E 032°00'0 0.0
2018-Feb-21 19:30N 46°56' E 032°00'0 0.0
2018-Feb-21 19:00N 46°56' E 032°00'0 0.0
2018-Feb-21 18:30N 46°56' E 032°00'0 0.0
2018-Feb-21 18:00N 46°56' E 032°00'0 0.0
2018-Feb-21 17:30N 46°56' E 032°00'0 0.0
2018-Feb-21 17:00N 46°56' E 032°00'0 0.0
2018-Feb-21 16:30N 46°56' E 032°00'0 0.0
2018-Feb-21 16:00N 46°56' E 032°00'0 0.0
2018-Feb-21 15:30N 46°56' E 032°00'0 0.0
2018-Feb-21 14:57N 46°56' E 032°00'0 0.0
2018-Feb-21 14:30N 46°56' E 032°00'0 0.0
2018-Feb-21 13:57N 46°56' E 032°00'0 0.0
2018-Feb-21 13:30N 46°56' E 032°00'0 0.0
2018-Feb-21 13:00N 46°57' E 032°00'0 0.0
2018-Feb-21 12:30N 46°56' E 032°00'0 0.0
2018-Feb-21 12:00N 46°56' E 032°00'0 0.0
2018-Feb-21 11:30N 46°56' E 032°00'0 0.0
2018-Feb-21 11:00N 46°56' E 032°00'0 0.0
2018-Feb-21 10:30N 46°56' E 032°00'0 0.0
2018-Feb-21 10:00N 46°56' E 032°00'0 0.0
2018-Feb-21 09:30N 46°56' E 032°00'0 0.0
2018-Feb-21 09:00N 46°56' E 032°00'0 0.1
2018-Feb-21 08:30N 46°56' E 032°00'0 0.0
2018-Feb-21 08:00N 46°56' E 032°00'0 0.0
2018-Feb-21 07:30N 46°56' E 032°00'0 0.0
2018-Feb-21 07:00N 46°56' E 032°00'0 0.0
2018-Feb-21 06:30N 46°56' E 032°00'0 0.0
2018-Feb-21 06:00N 46°56' E 032°00'0 0.0
2018-Feb-21 05:30N 46°56' E 032°00'0 0.0
2018-Feb-21 05:00N 46°56' E 032°00'0 0.0
2018-Feb-21 04:30N 46°56' E 032°00'0 0.0
2018-Feb-21 04:00N 46°56' E 032°00'0 0.0
2018-Feb-21 03:30N 46°56' E 032°00'0 0.0
2018-Feb-21 03:00N 46°56' E 032°00'0 0.0
2018-Feb-21 02:30N 46°56' E 032°00'0 0.0
2018-Feb-21 02:00N 46°56' E 032°00'0 0.0
2018-Feb-21 01:30N 46°56' E 032°00'0 0.0
2018-Feb-21 01:00N 46°56' E 032°00'0 0.0
2018-Feb-21 00:30N 46°56' E 032°00'0 0.0
2018-Feb-21 00:00N 46°56' E 032°00'0 0.0
2018-Feb-20 23:30N 46°56' E 032°00'0 0.0
2018-Feb-20 23:00N 46°56' E 032°00'0 0.0
2018-Feb-20 22:30N 46°56' E 032°00'0 0.1
2018-Feb-20 21:57N 46°57' E 032°00'0 0.0
2018-Feb-20 21:30N 46°57' E 032°00'0 0.1
2018-Feb-20 20:57N 46°57' E 032°00'0 0.1
2018-Feb-20 20:30N 46°57' E 032°00'1 1.1
2018-Feb-20 20:00N 46°57' E 031°60'0 0.0
2018-Feb-20 19:30N 46°57' E 031°60'0 0.0
2018-Feb-20 19:00N 46°57' E 031°60'0 0.0
2018-Feb-20 18:30N 46°57' E 031°60'0 0.0
2018-Feb-20 18:00N 46°57' E 031°60'0 0.0
2018-Feb-20 17:30N 46°57' E 031°60'0 0.0
2018-Feb-20 17:00N 46°57' E 031°60'0 0.0
2018-Feb-20 16:30N 46°57' E 031°60'0 0.0
2018-Feb-20 16:00N 46°57' E 031°60'0 0.0
2018-Feb-20 15:30N 46°57' E 031°60'0 0.0
2018-Feb-20 15:00N 46°57' E 031°60'0 0.0
2018-Feb-20 14:30N 46°57' E 031°60'0 0.0
2018-Feb-20 13:57N 46°57' E 031°60'0 0.0
2018-Feb-20 13:27N 46°57' E 031°60'0 0.0
2018-Feb-20 12:57N 46°57' E 031°60'0 0.0
2018-Feb-20 12:27N 46°57' E 031°60'0 0.0
2018-Feb-20 11:45N 46°57' E 031°60'0 0.0
2018-Feb-20 11:27N 46°57' E 031°60'0 0.0
2018-Feb-20 10:57N 46°57' E 031°60'0 0.0
2018-Feb-20 10:27N 46°57' E 031°60'0 0.0
2018-Feb-20 09:57N 46°57' E 031°60'0 0.0
2018-Feb-20 09:27N 46°57' E 031°60'0 0.0
2018-Feb-20 08:57N 46°57' E 031°60'0 0.0
2018-Feb-20 08:27N 46°57' E 031°60'0 0.0
2018-Feb-20 08:00N 46°57' E 031°60'0 0.0
2018-Feb-20 07:30N 46°57' E 031°60'0 0.0
2018-Feb-20 07:00N 46°57' E 031°60'0 0.0
2018-Feb-20 06:30N 46°57' E 031°60'0 0.0
2018-Feb-20 06:00N 46°57' E 031°60'0 0.0
2018-Feb-20 05:30N 46°57' E 031°60'0 0.0
2018-Feb-20 05:00N 46°57' E 031°60'0 0.0
2018-Feb-20 04:30N 46°57' E 031°60'0 0.0
2018-Feb-20 03:57N 46°57' E 031°60'0 0.0
2018-Feb-20 03:30N 46°57' E 031°60'0 0.0
2018-Feb-20 03:00N 46°57' E 031°60'0 0.0
2018-Feb-20 02:30N 46°57' E 031°60'0 0.0
2018-Feb-20 02:00N 46°57' E 031°60'0 0.0
2018-Feb-20 01:30N 46°57' E 031°60'0 0.0
2018-Feb-20 01:00N 46°57' E 031°60'0 0.0
2018-Feb-20 00:30N 46°57' E 031°60'0 0.0
2018-Feb-20 00:00N 46°57' E 031°60'0 0.0
2018-Feb-19 23:30N 46°57' E 031°60'0 0.0
2018-Feb-19 23:00N 46°57' E 031°60'0 0.0
2018-Feb-19 22:30N 46°57' E 031°60'0 0.0
2018-Feb-19 22:00N 46°57' E 031°60'0 0.0
2018-Feb-19 21:24N 46°57' E 031°60'0 0.0
2018-Feb-19 21:00N 46°57' E 031°60'0 0.0
2018-Feb-19 20:30N 46°57' E 031°60'0 0.0
2018-Feb-19 20:00N 46°57' E 031°60'0 0.0
2018-Feb-19 19:30N 46°57' E 031°60'0 0.0
2018-Feb-19 19:00N 46°57' E 031°60'0 0.0
2018-Feb-19 18:30N 46°57' E 031°60'0 0.0
2018-Feb-19 18:00N 46°57' E 031°60'0 0.0
2018-Feb-19 17:30N 46°57' E 031°60'0 0.0
2018-Feb-19 17:00N 46°57' E 031°60'0 0.0
2018-Feb-19 16:30N 46°57' E 031°60'0 0.0
2018-Feb-19 16:00N 46°57' E 031°60'0 0.0
2018-Feb-19 15:30N 46°57' E 031°60'0 0.0
2018-Feb-19 15:00N 46°57' E 031°60'0 0.0
2018-Feb-19 14:30N 46°57' E 031°60'0 0.0
2018-Feb-19 14:00N 46°57' E 031°60'0 0.0
2018-Feb-19 13:30N 46°57' E 031°60'0 0.0
2018-Feb-19 13:00N 46°57' E 031°60'0 0.0
2018-Feb-19 12:30N 46°57' E 031°60'0 0.0
2018-Feb-19 12:00N 46°57' E 031°60'0 0.0
2018-Feb-19 11:30N 46°57' E 031°60'0 0.0
2018-Feb-19 11:00N 46°57' E 031°60'0 0.0
2018-Feb-19 10:30N 46°57' E 031°60'0 0.0
2018-Feb-19 09:54N 46°57' E 031°60'0 0.0
2018-Feb-19 09:30N 46°57' E 031°60'0 0.0
2018-Feb-19 09:00N 46°57' E 031°60'0 0.0
2018-Feb-19 08:24N 46°57' E 031°60'0 0.0
2018-Feb-19 08:00N 46°57' E 031°60'0 0.0
2018-Feb-19 07:30N 46°57' E 031°60'0 0.0
2018-Feb-19 07:00N 46°57' E 031°60'0 0.0
2018-Feb-19 06:30N 46°57' E 031°60'0 0.0
2018-Feb-19 06:00N 46°57' E 031°60'0 0.0
2018-Feb-19 05:30N 46°57' E 031°60'0 0.0
2018-Feb-19 05:00N 46°57' E 031°60'0 0.0
2018-Feb-19 04:30N 46°57' E 031°60'0 0.0
2018-Feb-19 04:00N 46°57' E 031°60'0 0.0
2018-Feb-19 03:27N 46°57' E 031°60'0 0.0
2018-Feb-19 03:00N 46°57' E 031°60'0 0.0
2018-Feb-19 02:30N 46°57' E 031°60'0 0.0
2018-Feb-19 02:00N 46°57' E 031°60'0 0.0
2018-Feb-19 01:27N 46°57' E 031°60'0 0.0
2018-Feb-19 01:00N 46°57' E 031°60'0 0.0
2018-Feb-19 00:30N 46°57' E 031°60'0 0.5
2018-Feb-19 00:00N 46°57' E 031°60'0 0.3
2018-Feb-18 23:30N 46°57' E 032°00'0 0.0
2018-Feb-18 23:00N 46°57' E 032°00'0 0.0
2018-Feb-18 22:30N 46°57' E 032°00'0 0.0
2018-Feb-18 22:00N 46°57' E 032°00'0 0.1
2018-Feb-18 21:30N 46°57' E 032°00'0 0.0
2018-Feb-18 21:00N 46°57' E 032°00'0 0.0
2018-Feb-18 20:30N 46°57' E 032°00'0 0.0
2018-Feb-18 20:00N 46°57' E 032°00'0 0.1
2018-Feb-18 19:30N 46°57' E 032°00'0 0.0
2018-Feb-18 19:00N 46°57' E 032°00'0 0.0
2018-Feb-18 18:30N 46°57' E 032°00'0 0.0
2018-Feb-18 18:00N 46°57' E 032°00'0 0.0
2018-Feb-18 17:30N 46°56' E 032°00'0 0.0
2018-Feb-18 17:00N 46°57' E 032°00'0 0.0
2018-Feb-18 16:30N 46°57' E 032°00'0 0.0
2018-Feb-18 16:00N 46°57' E 032°00'0 0.0
2018-Feb-18 15:30N 46°57' E 032°00'0 0.0
2018-Feb-18 15:00N 46°57' E 032°00'0 0.0
2018-Feb-18 14:30N 46°57' E 032°00'0 0.0
2018-Feb-18 14:00N 46°57' E 032°00'0 0.0
2018-Feb-18 13:30N 46°57' E 032°00'0 0.0
2018-Feb-18 13:00N 46°57' E 032°00'0 0.0
2018-Feb-18 12:30N 46°57' E 032°00'0 0.0
2018-Feb-18 12:00N 46°57' E 032°00'0 0.0
2018-Feb-18 11:30N 46°57' E 032°00'0 0.1
2018-Feb-18 11:00N 46°57' E 032°00'0 0.1
2018-Feb-18 10:27N 46°57' E 031°60'0 0.0
2018-Feb-18 10:00N 46°57' E 031°60'0 0.0
2018-Feb-18 09:30N 46°57' E 031°60'0 0.0
2018-Feb-18 09:00N 46°57' E 031°60'0 0.0
2018-Feb-18 08:30N 46°57' E 031°60'0 0.0
2018-Feb-18 08:00N 46°57' E 031°60'0 0.1
2018-Feb-18 07:30N 46°57' E 032°00'0 0.0
2018-Feb-18 07:00N 46°57' E 032°00'0 0.0
2018-Feb-18 06:30N 46°57' E 032°00'0 0.0
2018-Feb-18 06:00N 46°57' E 032°00'0 0.0
2018-Feb-18 05:30N 46°57' E 032°00'0 0.0
2018-Feb-18 05:00N 46°57' E 032°00'0 0.0
2018-Feb-18 04:30N 46°57' E 032°00'0 0.0
2018-Feb-18 04:00N 46°57' E 032°00'0 0.0
2018-Feb-18 03:30N 46°57' E 032°00'0 0.0
2018-Feb-18 03:00N 46°57' E 032°00'0 0.0
2018-Feb-18 02:30N 46°56' E 032°00'0 0.0
2018-Feb-18 02:00N 46°56' E 032°00'0 0.0
2018-Feb-18 01:30N 46°56' E 032°00'0 0.0
2018-Feb-18 01:00N 46°56' E 032°00'0 0.0
2018-Feb-18 00:30N 46°56' E 032°00'0 0.0
2018-Feb-18 00:00N 46°56' E 032°00'0 0.0
2018-Feb-17 23:30N 46°56' E 032°00'0 0.0
2018-Feb-17 23:00N 46°56' E 032°00'0 0.0
2018-Feb-17 22:31N 46°56' E 032°00'2 3.8
2018-Feb-17 22:00N 46°55' E 032°01'611.5
2018-Feb-17 21:30N 46°50' E 031°56'510.8
2018-Feb-17 21:00N 46°45' E 031°54'510.7
2018-Feb-17 20:31N 46°40' E 031°56'611.1
2018-Feb-17 19:59N 46°36' E 031°49'4 9.2
2018-Feb-17 19:31N 46°36' E 031°43'5 9.0
2018-Feb-17 19:00N 46°35' E 031°36'5 8.3
2018-Feb-17 18:26N 46°36' E 031°29'10 9.3
2018-Feb-17 17:21N 46°35' E 031°15'410.8
2018-Feb-17 16:58N 46°35' E 031°09'510.3
2018-Feb-17 16:31N 46°34' E 031°02'4 7.4
2018-Feb-17 16:00N 46°32' E 030°57'611.4
2018-Feb-17 15:31N 46°27' E 030°57'4 8.6
2018-Feb-17 15:01N 46°23' E 030°59'7 4.7
2018-Feb-17 13:36N 46°20' E 031°07'0 0.0
2018-Feb-17 05:53N 46°20' E 031°07'0 0.0
2018-Feb-17 04:58N 46°20' E 031°07'0 0.1
2018-Feb-17 03:53N 46°20' E 031°07'0 0.0
2018-Feb-17 02:55N 46°20' E 031°07'0 0.0
2018-Feb-17 02:13N 46°20' E 031°07'0 0.1
2018-Feb-17 01:57N 46°20' E 031°07'0 0.0
2018-Feb-17 01:30N 46°20' E 031°07'0 0.0
2018-Feb-17 00:52N 46°20' E 031°07'0 0.1
2018-Feb-17 00:31N 46°20' E 031°07'0 0.0
2018-Feb-16 23:59N 46°20' E 031°07'0 0.0
2018-Feb-16 23:29N 46°20' E 031°07'0 0.0
2018-Feb-16 22:55N 46°20' E 031°07'0 0.0
2018-Feb-16 22:28N 46°20' E 031°07'0 0.0
2018-Feb-16 21:58N 46°20' E 031°07'0 0.0
2018-Feb-16 21:27N 46°20' E 031°07'0 0.0
2018-Feb-16 20:59N 46°20' E 031°07'0 0.0
2018-Feb-16 20:26N 46°20' E 031°07'0 0.1
2018-Feb-16 20:01N 46°20' E 031°07'0 0.0
2018-Feb-16 19:30N 46°20' E 031°07'0 0.0
2018-Feb-16 16:28N 46°20' E 031°07'0 0.0
2018-Feb-16 16:00N 46°20' E 031°07'341 7.3
2018-Feb-14 17:09N 40°51' E 029°01'311.3
2018-Feb-14 16:51N 40°48' E 028°59'28411.6
2018-Feb-13 16:22N 37°44' E 024°21'1113.7
2018-Feb-13 15:32N 37°37' E 024°09'313.0
2018-Feb-13 15:20N 37°37' E 024°05'713.9
2018-Feb-13 14:48N 37°37' E 023°56'413.9
2018-Feb-13 14:30N 37°38' E 023°51'713.9
2018-Feb-13 14:01N 37°40' E 023°42'713.6
2018-Feb-13 13:30N 37°46' E 023°39'612.1
2018-Feb-13 13:01N 37°50' E 023°34'2 4.2
2018-Feb-13 12:29N 37°51' E 023°31'0 0.1
2018-Feb-13 11:59N 37°51' E 023°31'0 0.0
2018-Feb-13 11:29N 37°51' E 023°31'0 0.1
2018-Feb-13 10:59N 37°51' E 023°31'0 0.2
2018-Feb-13 10:29N 37°51' E 023°31'0 0.2
2018-Feb-13 09:59N 37°51' E 023°31'0 0.1
2018-Feb-13 09:29N 37°51' E 023°31'0 0.0
2018-Feb-13 08:59N 37°51' E 023°31'0 0.0
2018-Feb-13 08:29N 37°51' E 023°31'0 0.1
2018-Feb-13 07:59N 37°51' E 023°31'0 0.1
2018-Feb-13 07:29N 37°51' E 023°31'0 0.0
2018-Feb-13 06:59N 37°51' E 023°31'0 0.1
2018-Feb-13 06:29N 37°51' E 023°31'0 0.0
2018-Feb-13 05:59N 37°51' E 023°31'0 0.1
2018-Feb-13 05:29N 37°51' E 023°31'0 0.0
2018-Feb-13 04:59N 37°51' E 023°31'0 0.0
2018-Feb-13 04:29N 37°51' E 023°31'0 0.0
2018-Feb-13 03:53N 37°51' E 023°31'0 0.0
2018-Feb-13 03:29N 37°51' E 023°31'0 0.0
2018-Feb-13 02:59N 37°51' E 023°31'0 0.1
2018-Feb-13 02:30N 37°51' E 023°31'3 5.7
2018-Feb-13 02:00N 37°50' E 023°35'4 8.5
2018-Feb-13 01:30N 37°49' E 023°40'612.1
2018-Feb-13 01:00N 37°44' E 023°43'613.1
2018-Feb-13 00:31N 37°37' E 023°45'713.9
2018-Feb-13 00:01N 37°30' E 023°44'714.2
2018-Feb-12 23:30N 37°23' E 023°43'714.2
2018-Feb-12 23:00N 37°16' E 023°41'  

Dump ship's entire track history